Home   Weather   Germany   Weyhe   Past weeks
Flag for Germany

Past Weather in Weyhe, Lower Saxony, Germany — Yesterday and Last 2 Weeks

Currently: 34 °F. Light rain. Passing clouds. (Weather station: Bremen Airport, Germany). See more current weather

Past Weather in Weyhe — Graph

°F

Weyhe Temperature Yesterday

Maximum temperature yesterday: 43 °F (at 1:20 pm)
Minimum temperature yesterday: 27 °F (at 7:20 am)
Average temperature yesterday: 36 °F

High & Low Weather Summary for the Past Weeks

 TemperatureHumidityPressure
High64 °F (Feb 22, 1:20 pm)100% (Feb 27, 8:20 am)30.72 "Hg (Feb 27, 8:20 am)
Low27 °F (Mar 5, 10:50 pm)36% (Mar 8, 1:20 pm)30.01 "Hg (Feb 22, 1:20 am)
Average42 °F78%30.37 "Hg
* Reported Feb 22 1:20 am — Mar 9 1:50 am, Weyhe. Weather by CustomWeather, © 2021

Note: Actual official high and low records may vary slightly from our data, if they occured in-between our weather recording intervals... More about our weather records

Weyhe Weather History for the Previous 24 Hours

Scroll right to see more
 ConditionsComfort  
Time TempWeatherWind HumidityBarometerVisibility
1:50 am
Tue, Mar 9
36 °FLight rain. Passing clouds.7 mph81%30.12 "HgN/A
1:20 am37 °FPassing clouds.3 mph65%30.12 "HgN/A
12:50 am37 °FPassing clouds.3 mph65%30.12 "HgN/A
12:20 am37 °FPassing clouds.6 mph65%30.12 "HgN/A
11:50 pm
Mon, Mar 8
37 °FPassing clouds.7 mph60%30.12 "HgN/A
11:20 pm37 °FPassing clouds.6 mph60%30.12 "HgN/A
10:50 pm37 °FClear.6 mph60%30.15 "Hg10 mi
10:20 pm37 °FClear.6 mph56%30.15 "Hg10 mi
9:50 pm39 °FClear.5 mph52%30.15 "Hg10 mi
9:20 pm39 °FClear.5 mph48%30.15 "Hg10 mi
8:50 pm37 °FClear.3 mph60%30.15 "Hg10 mi
8:20 pm39 °FClear.2 mph48%30.15 "Hg10 mi
7:50 pm39 °FClear.3 mph56%30.15 "Hg10 mi
7:20 pm39 °FClear.3 mph52%30.15 "Hg10 mi
6:50 pm41 °FClear.3 mph42%30.18 "Hg10 mi
6:20 pm39 °FClear.5 mph48%30.18 "Hg10 mi
5:50 pm41 °FSunny.3 mph45%30.18 "Hg10 mi
5:20 pm41 °FSunny.6 mph45%30.18 "Hg10 mi
4:50 pm43 °FPassing clouds.5 mph39%30.18 "HgN/A
4:20 pm43 °FPassing clouds.7 mph39%30.18 "HgN/A
3:50 pm43 °FPassing clouds.7 mph39%30.18 "HgN/A
3:20 pm43 °FPassing clouds.6 mph39%30.18 "HgN/A
2:50 pm43 °FPassing clouds.7 mph36%30.21 "HgN/A
2:20 pm43 °FPassing clouds.8 mph39%30.21 "HgN/A
1:50 pm41 °FPassing clouds.7 mph39%30.21 "HgN/A
1:20 pm43 °FPassing clouds.7 mph36%30.21 "HgN/A
12:50 pm41 °FPassing clouds.9 mph39%30.21 "HgN/A
12:20 pm41 °FPassing clouds.6 mph45%30.24 "HgN/A
11:50 am41 °FPassing clouds.6 mph53%30.24 "HgN/A
11:20 am39 °FPassing clouds.6 mph56%30.24 "HgN/A
10:50 am37 °FPassing clouds.5 mph60%30.24 "HgN/A
10:20 am37 °FPassing clouds.5 mph70%30.24 "HgN/A
9:50 am36 °FPassing clouds.5 mph70%30.24 "HgN/A
9:20 am34 °FSunny.6 mph75%30.24 "Hg10 mi
8:50 am34 °FSunny.3 mph81%30.24 "Hg10 mi
8:20 am32 °FSunny.2 mph87%30.21 "Hg10 mi
7:50 am28 °FSunny.3 mph93%30.21 "Hg10 mi
7:20 am27 °FSunny.2 mph93%30.21 "Hg10 mi
6:50 am28 °FLight fog.3 mph93%30.21 "HgN/A
6:20 am28 °FClear.1 mph100%30.18 "Hg10 mi
5:50 am30 °FClear.3 mph93%30.18 "Hg10 mi
5:20 am30 °FPassing clouds.5 mph86%30.18 "HgN/A
4:50 am30 °FPassing clouds.5 mph86%30.15 "HgN/A
4:20 am30 °FPassing clouds.5 mph93%30.15 "HgN/A
3:50 am28 °FPassing clouds.3 mph100%30.15 "HgN/A
3:20 am30 °FPassing clouds.5 mph100%30.15 "HgN/A
Weather by CustomWeather, © 2021

See weather overview